Nrc Patriot II — WDA8587 — position and weather

sailwx.info

Track history (hours):
 
Tides and Currents Weather Stations Pressure Air Temp Water Temp Dewpoint Dewpoint Depression Visibility Wind Speed Wind Dir Waves Ship Positions

Nrc Patriot II

Owner: National Response Corporation, HOUSTON, TX. More information available from US FCC via Universal Licensing System and Coast Guard Vessel Documentation Center.

Last reported at 2014-Oct-02 11:34 UTC. Time now 2014-Oct-02 12:30 UTC.
Position N 33°40' W 118°02'.

Length 30 m; draft 3.5 m.

Type: Port tender. MMSI: 366855940.

Date/timePositionNaut miles runAvg speedWind from/ knotsBaromVisibWave heightAir tempDewpointWater temp
2014-Oct-02 11:34N 33°40' W 118°02'0 0.0
2014-Oct-02 10:34N 33°40' W 118°02'0 0.2
2014-Oct-02 09:34N 33°40' W 118°03'0 0.1
2014-Oct-02 08:34N 33°40' W 118°03'0 0.1
2014-Oct-02 07:30N 33°40' W 118°03'0 0.0
2014-Oct-02 06:34N 33°40' W 118°03'0 0.0
2014-Oct-02 05:33N 33°40' W 118°03'7 6.6
2014-Oct-02 04:33N 33°44' W 118°09'6 6.2
2014-Oct-02 03:33N 33°44' W 118°16'0 0.0
2014-Oct-02 02:29N 33°44' W 118°16'2 1.7
2014-Oct-02 01:33N 33°43' W 118°15'9 8.8
2014-Oct-02 00:33N 33°41' W 118°05'2 1.5
2014-Oct-01 23:12N 33°40' W 118°03'0 0.1
2014-Oct-01 22:31N 33°40' W 118°03'8 7.5
2014-Oct-01 21:29N 33°43' W 118°11'5 4.4
2014-Oct-01 20:28N 33°44' W 118°16'0 0.0
2014-Oct-01 19:34N 33°44' W 118°16'0 0.0
2014-Oct-01 14:17N 33°44' W 118°16'0 0.0
2014-Oct-01 13:26N 33°44' W 118°16'7 6.3
2014-Oct-01 12:18N 33°43' W 118°08'5 7.3
2014-Oct-01 11:33N 33°40' W 118°03'0 0.1
2014-Oct-01 10:33N 33°40' W 118°03'0 0.0
2014-Oct-01 09:33N 33°40' W 118°03'0 0.0
2014-Oct-01 08:33N 33°40' W 118°03'0 0.0
2014-Oct-01 07:31N 33°40' W 118°03'0 0.0
2014-Oct-01 06:22N 33°40' W 118°03'0 0.0
2014-Oct-01 05:33N 33°40' W 118°03'0 0.0
2014-Oct-01 04:33N 33°40' W 118°03'8 7.6
2014-Oct-01 03:33N 33°43' W 118°11'5 4.5
2014-Oct-01 02:33N 33°44' W 118°16'2 1.7
2014-Oct-01 01:33N 33°43' W 118°15'9 8.8
2014-Oct-01 00:32N 33°41' W 118°04'2 1.7
2014-Sep-30 23:33N 33°40' W 118°03'0 0.0
2014-Sep-30 22:33N 33°40' W 118°03'0 0.1
2014-Sep-30 21:33N 33°40' W 118°03'0 0.4
2014-Sep-30 20:33N 33°40' W 118°03'10 9.8
2014-Sep-30 19:32N 33°43' W 118°15'2 1.8
2014-Sep-30 18:31N 33°44' W 118°16'0 0.0
2014-Sep-30 17:33N 33°44' W 118°16'0 0.0
2014-Sep-30 14:33N 33°44' W 118°16'0 0.0
2014-Sep-30 13:34N 33°44' W 118°16'8 7.6
2014-Sep-30 12:33N 33°43' W 118°07'5 5.0
2014-Sep-30 11:33N 33°40' W 118°03'0 0.1
2014-Sep-30 10:33N 33°40' W 118°03'0 0.0
2014-Sep-30 09:33N 33°40' W 118°03'0 0.0
2014-Sep-30 08:33N 33°40' W 118°03'0 0.0
2014-Sep-30 07:34N 33°40' W 118°03'0 0.1
2014-Sep-30 06:33N 33°40' W 118°03'0 0.0
2014-Sep-30 05:32N 33°40' W 118°03'5 5.2
2014-Sep-30 04:33N 33°43' W 118°07'7 7.5
2014-Sep-30 03:33N 33°44' W 118°16'0 0.0
2014-Sep-30 02:32N 33°44' W 118°16'0 0.0
2014-Sep-30 01:32N 33°44' W 118°16'0 0.0
2014-Sep-30 00:33N 33°44' W 118°16'0 0.0
2014-Sep-29 23:32N 33°44' W 118°16'2 2.1
2014-Sep-29 22:33N 33°43' W 118°14'9 8.8
2014-Sep-29 21:33N 33°41' W 118°04'1 1.5
2014-Sep-29 20:33N 33°40' W 118°03'5 5.4
2014-Sep-29 19:33N 33°42' W 118°08'7 6.3
2014-Sep-29 18:28N 33°44' W 118°16'0 0.0
2014-Sep-29 09:31N 33°44' W 118°16'0 0.0
2014-Sep-29 08:30N 33°44' W 118°16'0 0.0
2014-Sep-29 07:26N 33°44' W 118°16'0 0.0
2014-Sep-29 05:24N 33°44' W 118°16'0 0.0
2014-Sep-29 04:23N 33°44' W 118°16'0 0.0
2014-Sep-28 14:27N 33°44' W 118°16'0 0.0
2014-Sep-28 13:13N 33°44' W 118°16'0 0.0
2014-Sep-28 12:09N 33°44' W 118°16'0 0.0
2014-Sep-28 10:32N 33°44' W 118°16'3 3.1
2014-Sep-28 09:24N 33°44' W 118°12'9 8.7
2014-Sep-28 08:24N 33°40' W 118°03'0 0.0
2014-Sep-28 07:24N 33°40' W 118°03'0 0.2
2014-Sep-28 06:33N 33°40' W 118°02'0 0.2
2014-Sep-28 05:32N 33°40' W 118°03'4 1.9
2014-Sep-28 03:28N 33°41' W 118°07'8 8.8
2014-Sep-28 02:33N 33°43' W 118°16'1 0.8
2014-Sep-28 01:33N 33°44' W 118°16'5 5.3
2014-Sep-28 00:33N 33°44' W 118°10'7 2.4
2014-Sep-27 21:31N 33°40' W 118°03'0 0.0
2014-Sep-27 17:18N 33°40' W 118°03'6 8.7
2014-Sep-27 16:33N 33°44' W 118°09'6 3.2
2014-Sep-27 14:33N 33°44' W 118°16'0 0.0
2014-Sep-27 06:22N 33°44' W 118°16'2 0.6
2014-Sep-27 02:32N 33°42' W 118°14'2 2.0
2014-Sep-27 01:23N 33°44' W 118°16'7 8.6
2014-Sep-27 00:33N 33°44' W 118°08'6 5.2
2014-Sep-26 23:29N 33°40' W 118°03'9 9.1
2014-Sep-26 22:32N 33°44' W 118°12'3 2.7
2014-Sep-26 21:16N 33°44' W 118°16'0 0.0
2014-Sep-26 20:20N 33°44' W 118°16'0 0.0
2014-Sep-26 19:14N 33°44' W 118°16'0 0.0
2014-Sep-26 16:33N 33°44' W 118°16'0 0.0
2014-Sep-26 15:32N 33°44' W 118°16'0 0.0
2014-Sep-26 14:33N 33°44' W 118°16'0 0.0
2014-Sep-26 12:28N 33°44' W 118°16'0 0.0
2014-Sep-26 11:31N 33°44' W 118°16'0 0.0
2014-Sep-26 10:33N 33°44' W 118°16'0 0.0
2014-Sep-26 09:32N 33°44' W 118°16'0 0.0
2014-Sep-26 08:33N 33°44' W 118°16'0 0.0
2014-Sep-26 07:33N 33°44' W 118°16'0 0.0
2014-Sep-26 06:33N 33°44' W 118°16'0 0.0
2014-Sep-26 05:33N 33°44' W 118°16'0 0.0
2014-Sep-26 04:33N 33°44' W 118°16'0 0.0
2014-Sep-26 03:33N 33°44' W 118°16'0 0.0
2014-Sep-26 02:33N 33°44' W 118°16'0 0.1
2014-Sep-26 01:33N 33°44' W 118°16'4 3.9
2014-Sep-26 00:33N 33°44' W 118°12'8 8.4
2014-Sep-25 23:33N 33°40' W 118°03'0 0.1
2014-Sep-25 22:33N 33°40' W 118°03'0 0.0
2014-Sep-25 21:33N 33°40' W 118°03'0 0.1
2014-Sep-25 20:33N 33°40' W 118°03'4 4.5
2014-Sep-25 19:33N 33°43' W 118°07'8 8.1
2014-Sep-25 18:33N 33°44' W 118°16'0 0.3
2014-Sep-25 17:33N 33°44' W 118°16'0 0.0
2014-Sep-25 16:33N 33°44' W 118°16'0 0.0
2014-Sep-25 15:33N 33°44' W 118°16'0 0.1
2014-Sep-25 14:33N 33°44' W 118°16'0 0.0
2014-Sep-25 13:33N 33°44' W 118°16'0 0.0
2014-Sep-25 12:33N 33°44' W 118°16'0 0.0
2014-Sep-25 11:33N 33°44' W 118°16'1 0.9
2014-Sep-25 10:33N 33°43' W 118°16'9 9.2
2014-Sep-25 09:33N 33°41' W 118°05'2 2.5
2014-Sep-25 08:33N 33°40' W 118°03'0 0.1
2014-Sep-25 07:33N 33°40' W 118°03'0 0.0
2014-Sep-25 06:33N 33°40' W 118°03'0 0.0
2014-Sep-25 05:33N 33°40' W 118°03'0 0.1
2014-Sep-25 04:31N 33°40' W 118°03'4 3.6
2014-Sep-25 03:26N 33°40' W 118°07'8 9.0
2014-Sep-25 02:33N 33°43' W 118°16'1 1.1
2014-Sep-25 01:33N 33°44' W 118°16'0 0.0
2014-Sep-25 00:33N 33°44' W 118°16'0 0.0
2014-Sep-24 23:33N 33°44' W 118°16'0 0.0
2014-Sep-24 22:33N 33°44' W 118°16'0 0.0
2014-Sep-24 21:33N 33°44' W 118°16'0 0.0
2014-Sep-24 20:33N 33°44' W 118°16'0 0.0
2014-Sep-24 19:33N 33°44' W 118°16'0 0.0
2014-Sep-24 18:33N 33°44' W 118°16'0 0.0
2014-Sep-24 17:33N 33°44' W 118°16'0 0.0
2014-Sep-24 16:33N 33°44' W 118°16'0 0.0
2014-Sep-24 15:33N 33°44' W 118°16'4 4.0
2014-Sep-24 14:33N 33°41' W 118°13'9 8.6
2014-Sep-24 13:33N 33°40' W 118°03'0 0.1
2014-Sep-24 12:33N 33°40' W 118°03'0 0.0
2014-Sep-24 11:33N 33°40' W 118°03'0 0.0
2014-Sep-24 10:33N 33°40' W 118°03'0 0.0
2014-Sep-24 09:34N 33°40' W 118°03'0 0.1
2014-Sep-24 08:33N 33°40' W 118°03'0 0.1
2014-Sep-24 07:34N 33°40' W 118°03'0 0.0
2014-Sep-24 06:33N 33°40' W 118°03'5 5.4
2014-Sep-24 05:33N 33°40' W 118°09'7 7.2
2014-Sep-24 04:33N 33°44' W 118°16'0 0.0
2014-Sep-24 03:33N 33°44' W 118°16'2 2.5
2014-Sep-24 02:33N 33°43' W 118°13'8 8.2
2014-Sep-24 01:33N 33°41' W 118°04'2 1.6
2014-Sep-24 00:33N 33°40' W 118°02'0 0.0
2014-Sep-23 23:34N 33°40' W 118°02'0 0.0
2014-Sep-23 22:33N 33°40' W 118°02'0 0.0
2014-Sep-23 21:33N 33°40' W 118°02'0 0.2
2014-Sep-23 20:33N 33°40' W 118°03'0 0.2
2014-Sep-23 19:33N 33°40' W 118°02'0 0.0
2014-Sep-23 18:32N 33°40' W 118°02'0 0.0
2014-Sep-23 17:29N 33°40' W 118°02'7 7.3
2014-Sep-23 16:33N 33°44' W 118°09'6 6.2
2014-Sep-23 15:33N 33°44' W 118°16'1 1.3
2014-Sep-23 14:29N 33°43' W 118°15'2 2.1
2014-Sep-23 13:23N 33°43' W 118°13'8 9.6
2014-Sep-23 12:33N 33°40' W 118°04'1 1.0
2014-Sep-23 11:32N 33°40' W 118°03'0 0.0
2014-Sep-23 10:33N 33°40' W 118°03'0 0.0
2014-Sep-23 09:33N 33°40' W 118°03'0 0.0
2014-Sep-23 08:26N 33°40' W 118°03'0 0.1
2014-Sep-23 07:27N 33°40' W 118°03'0 0.1
2014-Sep-23 06:34N 33°40' W 118°03'6 5.8
2014-Sep-23 05:32N 33°40' W 118°10'7 6.9
2014-Sep-23 04:33N 33°44' W 118°16'0 0.0
2014-Sep-23 03:32N 33°44' W 118°16'0 0.0
2014-Sep-23 02:31N 33°44' W 118°16'6 6.5
2014-Sep-23 01:34N 33°43' W 118°09'6 6.1
2014-Sep-23 00:34N 33°40' W 118°03'0 0.1
2014-Sep-22 23:33N 33°40' W 118°03'0 0.1
2014-Sep-22 22:33N 33°40' W 118°03'0 0.0
2014-Sep-22 17:11N 33°40' W 118°03'0 0.0
2014-Sep-22 16:34N 33°40' W 118°03'1 0.8
2014-Sep-22 15:33N 33°40' W 118°03'8 8.3
2014-Sep-22 14:34N 33°44' W 118°13'3 2.5
2014-Sep-22 13:20N 33°44' W 118°16'0 0.0
2014-Sep-22 12:30N 33°44' W 118°16'  
Track history (hours):
 
Tides and Currents Weather Stations Pressure Air Temp Water Temp Dewpoint Dewpoint Depression Visibility Wind Speed Wind Dir Waves Ship Positions

Nrc Patriot II

Owner: National Response Corporation, HOUSTON, TX. More information available from US FCC via Universal Licensing System and Coast Guard Vessel Documentation Center.

Last reported at 2014-Oct-02 11:34 UTC. Time now 2014-Oct-02 12:30 UTC.
Position N 33°40' W 118°02'.

Length 30 m; draft 3.5 m.

Type: Port tender. MMSI: 366855940.

Date/timePositionNaut miles runAvg speedWind from/ knotsBaromVisibWave heightAir tempDewpointWater temp
2014-Oct-02 11:34N 33°40' W 118°02'0 0.0
2014-Oct-02 10:34N 33°40' W 118°02'0 0.2
2014-Oct-02 09:34N 33°40' W 118°03'0 0.1
2014-Oct-02 08:34N 33°40' W 118°03'0 0.1
2014-Oct-02 07:30N 33°40' W 118°03'0 0.0
2014-Oct-02 06:34N 33°40' W 118°03'0 0.0
2014-Oct-02 05:33N 33°40' W 118°03'7 6.6
2014-Oct-02 04:33N 33°44' W 118°09'6 6.2
2014-Oct-02 03:33N 33°44' W 118°16'0 0.0
2014-Oct-02 02:29N 33°44' W 118°16'2 1.7
2014-Oct-02 01:33N 33°43' W 118°15'9 8.8
2014-Oct-02 00:33N 33°41' W 118°05'2 1.5
2014-Oct-01 23:12N 33°40' W 118°03'0 0.1
2014-Oct-01 22:31N 33°40' W 118°03'8 7.5
2014-Oct-01 21:29N 33°43' W 118°11'5 4.4
2014-Oct-01 20:28N 33°44' W 118°16'0 0.0
2014-Oct-01 19:34N 33°44' W 118°16'0 0.0
2014-Oct-01 14:17N 33°44' W 118°16'0 0.0
2014-Oct-01 13:26N 33°44' W 118°16'7 6.3
2014-Oct-01 12:18N 33°43' W 118°08'5 7.3
2014-Oct-01 11:33N 33°40' W 118°03'0 0.1
2014-Oct-01 10:33N 33°40' W 118°03'0 0.0
2014-Oct-01 09:33N 33°40' W 118°03'0 0.0
2014-Oct-01 08:33N 33°40' W 118°03'0 0.0
2014-Oct-01 07:31N 33°40' W 118°03'0 0.0
2014-Oct-01 06:22N 33°40' W 118°03'0 0.0
2014-Oct-01 05:33N 33°40' W 118°03'0 0.0
2014-Oct-01 04:33N 33°40' W 118°03'8 7.6
2014-Oct-01 03:33N 33°43' W 118°11'5 4.5
2014-Oct-01 02:33N 33°44' W 118°16'2 1.7
2014-Oct-01 01:33N 33°43' W 118°15'9 8.8
2014-Oct-01 00:32N 33°41' W 118°04'2 1.7
2014-Sep-30 23:33N 33°40' W 118°03'0 0.0
2014-Sep-30 22:33N 33°40' W 118°03'0 0.1
2014-Sep-30 21:33N 33°40' W 118°03'0 0.4
2014-Sep-30 20:33N 33°40' W 118°03'10 9.8
2014-Sep-30 19:32N 33°43' W 118°15'2 1.8
2014-Sep-30 18:31N 33°44' W 118°16'0 0.0
2014-Sep-30 17:33N 33°44' W 118°16'0 0.0
2014-Sep-30 14:33N 33°44' W 118°16'0 0.0
2014-Sep-30 13:34N 33°44' W 118°16'8 7.6
2014-Sep-30 12:33N 33°43' W 118°07'5 5.0
2014-Sep-30 11:33N 33°40' W 118°03'0 0.1
2014-Sep-30 10:33N 33°40' W 118°03'0 0.0
2014-Sep-30 09:33N 33°40' W 118°03'0 0.0
2014-Sep-30 08:33N 33°40' W 118°03'0 0.0
2014-Sep-30 07:34N 33°40' W 118°03'0 0.1
2014-Sep-30 06:33N 33°40' W 118°03'0 0.0
2014-Sep-30 05:32N 33°40' W 118°03'5 5.2
2014-Sep-30 04:33N 33°43' W 118°07'7 7.5
2014-Sep-30 03:33N 33°44' W 118°16'0 0.0
2014-Sep-30 02:32N 33°44' W 118°16'0 0.0
2014-Sep-30 01:32N 33°44' W 118°16'0 0.0
2014-Sep-30 00:33N 33°44' W 118°16'0 0.0
2014-Sep-29 23:32N 33°44' W 118°16'2 2.1
2014-Sep-29 22:33N 33°43' W 118°14'9 8.8
2014-Sep-29 21:33N 33°41' W 118°04'1 1.5
2014-Sep-29 20:33N 33°40' W 118°03'5 5.4
2014-Sep-29 19:33N 33°42' W 118°08'7 6.3
2014-Sep-29 18:28N 33°44' W 118°16'0 0.0
2014-Sep-29 09:31N 33°44' W 118°16'0 0.0
2014-Sep-29 08:30N 33°44' W 118°16'0 0.0
2014-Sep-29 07:26N 33°44' W 118°16'0 0.0
2014-Sep-29 05:24N 33°44' W 118°16'0 0.0
2014-Sep-29 04:23N 33°44' W 118°16'0 0.0
2014-Sep-28 14:27N 33°44' W 118°16'0 0.0
2014-Sep-28 13:13N 33°44' W 118°16'0 0.0
2014-Sep-28 12:09N 33°44' W 118°16'0 0.0
2014-Sep-28 10:32N 33°44' W 118°16'3 3.1
2014-Sep-28 09:24N 33°44' W 118°12'9 8.7
2014-Sep-28 08:24N 33°40' W 118°03'0 0.0
2014-Sep-28 07:24N 33°40' W 118°03'0 0.2
2014-Sep-28 06:33N 33°40' W 118°02'0 0.2
2014-Sep-28 05:32N 33°40' W 118°03'4 1.9
2014-Sep-28 03:28N 33°41' W 118°07'8 8.8
2014-Sep-28 02:33N 33°43' W 118°16'1 0.8
2014-Sep-28 01:33N 33°44' W 118°16'5 5.3
2014-Sep-28 00:33N 33°44' W 118°10'7 2.4
2014-Sep-27 21:31N 33°40' W 118°03'0 0.0
2014-Sep-27 17:18N 33°40' W 118°03'6 8.7
2014-Sep-27 16:33N 33°44' W 118°09'6 3.2
2014-Sep-27 14:33N 33°44' W 118°16'0 0.0
2014-Sep-27 06:22N 33°44' W 118°16'2 0.6
2014-Sep-27 02:32N 33°42' W 118°14'2 2.0
2014-Sep-27 01:23N 33°44' W 118°16'7 8.6
2014-Sep-27 00:33N 33°44' W 118°08'6 5.2
2014-Sep-26 23:29N 33°40' W 118°03'9 9.1
2014-Sep-26 22:32N 33°44' W 118°12'3 2.7
2014-Sep-26 21:16N 33°44' W 118°16'0 0.0
2014-Sep-26 20:20N 33°44' W 118°16'0 0.0
2014-Sep-26 19:14N 33°44' W 118°16'0 0.0
2014-Sep-26 16:33N 33°44' W 118°16'0 0.0
2014-Sep-26 15:32N 33°44' W 118°16'0 0.0
2014-Sep-26 14:33N 33°44' W 118°16'0 0.0
2014-Sep-26 12:28N 33°44' W 118°16'0 0.0
2014-Sep-26 11:31N 33°44' W 118°16'0 0.0
2014-Sep-26 10:33N 33°44' W 118°16'0 0.0
2014-Sep-26 09:32N 33°44' W 118°16'0 0.0
2014-Sep-26 08:33N 33°44' W 118°16'0 0.0
2014-Sep-26 07:33N 33°44' W 118°16'0 0.0
2014-Sep-26 06:33N 33°44' W 118°16'0 0.0
2014-Sep-26 05:33N 33°44' W 118°16'0 0.0
2014-Sep-26 04:33N 33°44' W 118°16'0 0.0
2014-Sep-26 03:33N 33°44' W 118°16'0 0.0
2014-Sep-26 02:33N 33°44' W 118°16'0 0.1
2014-Sep-26 01:33N 33°44' W 118°16'4 3.9
2014-Sep-26 00:33N 33°44' W 118°12'8 8.4
2014-Sep-25 23:33N 33°40' W 118°03'0 0.1
2014-Sep-25 22:33N 33°40' W 118°03'0 0.0
2014-Sep-25 21:33N 33°40' W 118°03'0 0.1
2014-Sep-25 20:33N 33°40' W 118°03'4 4.5
2014-Sep-25 19:33N 33°43' W 118°07'8 8.1
2014-Sep-25 18:33N 33°44' W 118°16'0 0.3
2014-Sep-25 17:33N 33°44' W 118°16'0 0.0
2014-Sep-25 16:33N 33°44' W 118°16'0 0.0
2014-Sep-25 15:33N 33°44' W 118°16'0 0.1
2014-Sep-25 14:33N 33°44' W 118°16'0 0.0
2014-Sep-25 13:33N 33°44' W 118°16'0 0.0
2014-Sep-25 12:33N 33°44' W 118°16'0 0.0
2014-Sep-25 11:33N 33°44' W 118°16'1 0.9
2014-Sep-25 10:33N 33°43' W 118°16'9 9.2
2014-Sep-25 09:33N 33°41' W 118°05'2 2.5
2014-Sep-25 08:33N 33°40' W 118°03'0 0.1
2014-Sep-25 07:33N 33°40' W 118°03'0 0.0
2014-Sep-25 06:33N 33°40' W 118°03'0 0.0
2014-Sep-25 05:33N 33°40' W 118°03'0 0.1
2014-Sep-25 04:31N 33°40' W 118°03'4 3.6
2014-Sep-25 03:26N 33°40' W 118°07'8 9.0
2014-Sep-25 02:33N 33°43' W 118°16'1 1.1
2014-Sep-25 01:33N 33°44' W 118°16'0 0.0
2014-Sep-25 00:33N 33°44' W 118°16'0 0.0
2014-Sep-24 23:33N 33°44' W 118°16'0 0.0
2014-Sep-24 22:33N 33°44' W 118°16'0 0.0
2014-Sep-24 21:33N 33°44' W 118°16'0 0.0
2014-Sep-24 20:33N 33°44' W 118°16'0 0.0
2014-Sep-24 19:33N 33°44' W 118°16'0 0.0
2014-Sep-24 18:33N 33°44' W 118°16'0 0.0
2014-Sep-24 17:33N 33°44' W 118°16'0 0.0
2014-Sep-24 16:33N 33°44' W 118°16'0 0.0
2014-Sep-24 15:33N 33°44' W 118°16'4 4.0
2014-Sep-24 14:33N 33°41' W 118°13'9 8.6
2014-Sep-24 13:33N 33°40' W 118°03'0 0.1
2014-Sep-24 12:33N 33°40' W 118°03'0 0.0
2014-Sep-24 11:33N 33°40' W 118°03'0 0.0
2014-Sep-24 10:33N 33°40' W 118°03'0 0.0
2014-Sep-24 09:34N 33°40' W 118°03'0 0.1
2014-Sep-24 08:33N 33°40' W 118°03'0 0.1
2014-Sep-24 07:34N 33°40' W 118°03'0 0.0
2014-Sep-24 06:33N 33°40' W 118°03'5 5.4
2014-Sep-24 05:33N 33°40' W 118°09'7 7.2
2014-Sep-24 04:33N 33°44' W 118°16'0 0.0
2014-Sep-24 03:33N 33°44' W 118°16'2 2.5
2014-Sep-24 02:33N 33°43' W 118°13'8 8.2
2014-Sep-24 01:33N 33°41' W 118°04'2 1.6
2014-Sep-24 00:33N 33°40' W 118°02'0 0.0
2014-Sep-23 23:34N 33°40' W 118°02'0 0.0
2014-Sep-23 22:33N 33°40' W 118°02'0 0.0
2014-Sep-23 21:33N 33°40' W 118°02'0 0.2
2014-Sep-23 20:33N 33°40' W 118°03'0 0.2
2014-Sep-23 19:33N 33°40' W 118°02'0 0.0
2014-Sep-23 18:32N 33°40' W 118°02'0 0.0
2014-Sep-23 17:29N 33°40' W 118°02'7 7.3
2014-Sep-23 16:33N 33°44' W 118°09'6 6.2
2014-Sep-23 15:33N 33°44' W 118°16'1 1.3
2014-Sep-23 14:29N 33°43' W 118°15'2 2.1
2014-Sep-23 13:23N 33°43' W 118°13'8 9.6
2014-Sep-23 12:33N 33°40' W 118°04'1 1.0
2014-Sep-23 11:32N 33°40' W 118°03'0 0.0
2014-Sep-23 10:33N 33°40' W 118°03'0 0.0
2014-Sep-23 09:33N 33°40' W 118°03'0 0.0
2014-Sep-23 08:26N 33°40' W 118°03'0 0.1
2014-Sep-23 07:27N 33°40' W 118°03'0 0.1
2014-Sep-23 06:34N 33°40' W 118°03'6 5.8
2014-Sep-23 05:32N 33°40' W 118°10'7 6.9
2014-Sep-23 04:33N 33°44' W 118°16'0 0.0
2014-Sep-23 03:32N 33°44' W 118°16'0 0.0
2014-Sep-23 02:31N 33°44' W 118°16'6 6.5
2014-Sep-23 01:34N 33°43' W 118°09'6 6.1
2014-Sep-23 00:34N 33°40' W 118°03'0 0.1
2014-Sep-22 23:33N 33°40' W 118°03'0 0.1
2014-Sep-22 22:33N 33°40' W 118°03'0 0.0
2014-Sep-22 17:11N 33°40' W 118°03'0 0.0
2014-Sep-22 16:34N 33°40' W 118°03'1 0.8
2014-Sep-22 15:33N 33°40' W 118°03'8 8.3
2014-Sep-22 14:34N 33°44' W 118°13'3 2.5
2014-Sep-22 13:20N 33°44' W 118°16'0 0.0
2014-Sep-22 12:30N 33°44' W 118°16'  

Dump ship's entire track history